• Join FlightAware (Why Join?)
  • Login
  • US Flag 
03:29PM EST


 

Airport Tracker/Info


-or-


 

Live Flight TrackerFlight Track Log ✈ UPS1337 ✈ 25-Aug-2014 ✈ KPIE - KSDF

Flight Track Log - Related Links

Times and Time Zones

All times are in EDT time to prevent confusion due to time zone crossing. See the UPS1337 flight status page for this flight to view local times or setup timezone preferences in your user account.

Time Position Orientation Groundspeed Altitude Reporting Facility
EDT Latitude Longitude Course Direction KTS MPH feet Rate Location/Type
09:42PM 27.9167 -82.6833 North 162 186 600  Level Tampa TRACON
09:44PM 27.9839 -82.6794 North 198 228 4,200 3,000 Climbing Miami Center
09:45PM 28.0500 -82.6500 21° North 259 298 7,800 2,280 Climbing Tampa TRACON
09:51PM 28.6463 -82.9653 330° Northwest 466 536 21,600 2,040 Climbing FlightAware ADS-B (KGNV)
09:52PM 28.7216 -83.0151 330° Northwest 477 549 22,900 1,800 Climbing FlightAware ADS-B (KGNV)
09:53PM 28.7840 -83.0563 330° Northwest 489 563 23,800 1,740 Climbing FlightAware ADS-B (KGNV)
09:53PM 28.8616 -83.1072 331° Northwest 499 574 25,000 1,800 Climbing FlightAware ADS-B (KGNV)
09:54PM 28.9412 -83.1425 340° North 505 581 26,200 1,800 Climbing FlightAware ADS-B (KGNV)
09:55PM 29.0353 -83.1819 340° North 510 587 27,400 1,980 Climbing FlightAware ADS-B (KGNV)
09:55PM 29.1052 -83.2115 340° North 507 583 28,600 2,160 Climbing FlightAware ADS-B (KGNV)
09:56PM 29.1574 -83.2334 342° North 504 580 30,000 2,580 Climbing FlightAware ADS-B (KGNV)
09:57PM 29.3584 -83.2946 347° North 467 537 33,700 2,100 Climbing FlightAware ADS-B (KGNV)
09:58PM 29.3627 -83.2958 347° North 469 540 34,000 180 Climbing FlightAware ADS-B (KGNV)
09:59PM 29.5640 -83.3475 347° North 473 544 34,000  Level FlightAware ADS-B (KGNV)
09:59PM 29.6573 -83.3715 347° North 474 545 34,000  Level FlightAware ADS-B (KGNV)
10:00PM 29.7439 -83.3938 347° North 469 540 34,000  Level FlightAware ADS-B (KGNV)
10:01PM 29.8108 -83.4109 347° North 469 540 34,000  Level FlightAware ADS-B (KGNV)
10:01PM 29.8888 -83.4311 347° North 470 541 34,000  Level FlightAware ADS-B (KGNV)
10:02PM 29.9560 -83.4485 347° North 471 542 34,000  Level FlightAware ADS-B (KGNV)
10:02PM 30.0429 -83.4709 348° North 471 542 34,000  Level FlightAware ADS-B (KGNV)
10:03PM 30.1145 -83.4893 348° North 470 541 34,000  Level FlightAware ADS-B (KGNV)
10:04PM 30.1842 -83.5074 347° North 473 544 34,000  Level FlightAware ADS-B (KGNV)
10:04PM 30.2694 -83.5294 347° North 474 545 34,000  Level FlightAware ADS-B (KGNV)
10:05PM 30.3547 -83.5516 347° North 472 543 34,000  Level FlightAware ADS-B (KGNV)
10:05PM 30.4053 -83.5647 347° North 471 542 34,000  Level FlightAware ADS-B (KTLH)
10:06PM 30.5243 -83.5957 347° North 469 540 34,000  Level FlightAware ADS-B (KGNV)
10:07PM 30.6015 -83.6160 347° North 470 541 34,000  Level FlightAware ADS-B (KGNV)
10:08PM 30.6972 -83.6412 347° North 473 544 34,000  Level FlightAware ADS-B (KGNV)
10:08PM 30.7883 -83.6652 347° North 473 544 34,000  Level FlightAware ADS-B (KGNV)
10:09PM 30.8692 -83.6864 347° North 473 544 34,000  Level FlightAware ADS-B (KGNV)
10:10PM 30.9714 -83.7132 347° North 475 547 34,000  Level FlightAware ADS-B (KGNV)
10:10PM 31.0281 -83.7289 347° North 467 537 34,000  Level Jacksonville Center
10:13PM 31.3100 -83.8025 347° North 476 548 34,000  Level Atlanta Center
10:14PM 31.4403 -83.8383 347° North 476 548 34,000  Level Atlanta Center
10:15PM 31.5703 -83.8758 346° North 476 548 34,000  Level Atlanta Center
10:16PM 31.7072 -83.9131 347° North 485 558 34,000  Level Atlanta Center
10:17PM 31.8400 -83.9450 348° North 477 549 34,000  Level Atlanta Center
10:18PM 31.9686 -83.9792 347° North 476 548 34,000  Level Atlanta Center
10:19PM 32.1258 -84.0206 347° North 477 549 34,000  Level Atlanta Center
10:20PM 32.2561 -84.0558 347° North 478 550 34,000  Level Atlanta Center
10:21PM 32.3864 -84.0906 347° North 478 550 34,000  Level Atlanta Center
10:22PM 32.5158 -84.1267 347° North 478 550 34,000  Level Atlanta Center
10:23PM 32.6456 -84.1619 347° North 478 550 34,000  Level Atlanta Center
10:24PM 32.7750 -84.1972 347° North 478 550 34,000  Level Atlanta Center
10:25PM 32.9022 -84.2336 346° North 475 547 34,000  Level Atlanta Center
10:26PM 33.0314 -84.2686 347° North 475 547 34,000  Level Atlanta Center
10:27PM 33.1614 -84.3042 347° North 476 548 34,000  Level Atlanta Center
10:33PM 33.9944 -84.5237 349° North 472 543 34,000  Level FlightAware ADS-B (KDZJ)
10:34PM 34.0814 -84.5449 349° North 473 544 34,000  Level FlightAware ADS-B (KDZJ)
10:34PM 34.1655 -84.5654 349° North 472 543 34,000  Level FlightAware ADS-B (KDZJ)
10:35PM 34.2524 -84.5867 348° North 463 533 34,000  Level FlightAware ADS-B (KDZJ)
10:36PM 34.3390 -84.6087 348° North 462 532 34,000  Level FlightAware ADS-B (KDZJ)
10:36PM 34.4251 -84.6304 348° North 462 532 34,000  Level FlightAware ADS-B (KDZJ)
10:37PM 34.5095 -84.6517 348° North 460 529 34,000  Level FlightAware ADS-B (KDZJ)
10:38PM 34.5956 -84.6735 348° North 460 529 34,000  Level FlightAware ADS-B (KDZJ)
10:38PM 34.6790 -84.6947 348° North 459 528 34,000  Level FlightAware ADS-B (KDZJ)
10:39PM 34.7630 -84.7161 348° North 458 527 34,000  Level FlightAware ADS-B (KDZJ)
10:40PM 34.8478 -84.7377 348° North 459 528 34,000  Level FlightAware ADS-B (KDZJ)
10:41PM 34.9758 -84.7704 348° North 460 529 34,000  Level FlightAware ADS-B (KDZJ)
10:41PM 35.0615 -84.7923 348° North 459 528 34,000  Level FlightAware ADS-B (KDZJ)
10:42PM 35.1372 -84.8118 348° North 461 531 34,000  Level FlightAware ADS-B (KDZJ)
10:43PM 35.3045 -84.8548 348° North 470 541 34,000  Level FlightAware ADS-B (KMDQ)
10:44PM 35.3806 -84.8744 348° North 471 542 34,000  Level FlightAware ADS-B (KMDQ)
10:45PM 35.4777 -84.8995 348° North 470 541 34,000  Level FlightAware ADS-B (KMDQ)
10:45PM 35.5540 -84.9194 348° North 468 539 34,000 -360 Level FlightAware ADS-B (KMDQ)
10:46PM 35.6448 -84.9431 348° North 469 540 33,600 -900 Descending FlightAware ADS-B (KMDQ)
10:47PM 35.7287 -84.9649 348° North 475 547 32,800 -1,320 Descending FlightAware ADS-B (KMDQ)
10:47PM 35.8051 -84.9845 348° North 479 551 32,000 -1,560 Descending FlightAware ADS-B (KMDQ)
10:48PM 35.8729 -85.0003 350° North 477 549 31,100 -1,200 Descending FlightAware ADS-B (KMDQ)
10:49PM 35.9891 -85.0269 349° North 475 547 30,400 -360 Descending FlightAware ADS-B (KMDQ)
10:51PM 36.2949 -85.1125 341° North 477 549 30,000 -300 Descending FlightAware ADS-B (KMDQ)
10:52PM 36.3777 -85.1472 342° North 470 541 29,500 -2,160 Descending FlightAware ADS-B (KMDQ)
10:53PM 36.4837 -85.1914 342° North 478 550 26,800 -2,640 Descending FlightAware ADS-B
10:55PM 36.8074 -85.3270 341° North 455 524 20,500 -2,340 Descending FlightAware ADS-B
10:57PM 37.0541 -85.4475 324° Northwest 411 473 15,700 -2,160 Descending FlightAware ADS-B
10:58PM 37.1411 -85.5275 324° Northwest 392 451 13,700 -1,800 Descending FlightAware ADS-B
10:59PM 37.2244 -85.6035 323° Northwest 380 437 12,100 -1,260 Descending FlightAware ADS-B
11:02PM 37.4794 -85.6626 356° North 273 314 8,700 -1,080 Descending FlightAware ADS-B
11:03PM 37.5562 -85.6688 356° North 274 315 7,800 -1,020 Descending FlightAware ADS-B
11:04PM 37.6298 -85.6702 359° North 268 308 6,700 -1,380 Descending FlightAware ADS-B
11:06PM 37.7002 -85.6704 360° North 266 306 5,000 -1,680 Descending FlightAware ADS-B
11:06PM 37.7650 -85.6714 359° North 263 303 3,700 -1,080 Descending FlightAware ADS-B
11:08PM 37.8586 -85.6735 360° North 264 304 2,900 -420 Descending FlightAware ADS-B
11:09PM 37.9316 -85.6746 359° North 231 266 2,900  Level FlightAware ADS-B
11:10PM 37.9868 -85.6826 347° North 204 235 2,900 -240 Level FlightAware ADS-B
11:11PM 38.0434 -85.7019 345° North 178 205 2,500 -600 Descending FlightAware ADS-B
11:12PM 38.0813 -85.7140 345° North 142 163 1,700 -780 Descending FlightAware ADS-B
11:13PM 38.1150 -85.7251 345° North 142 163 1,000 -660 Descending FlightAware ADS-B
11:13PM 38.1500 -85.7333 345° North 138 159 600 -600 Descending Louisville TRACON
11:15PM 38.1741 -85.7365 293° West  Level Estimated